»·PEaware :: N645BJ KPHX-KSNA

N645BJ :: KPHX-KSNA

FLIGHT INFORMATION

Flight Status: Arrived
Operator: Privately registered:
United States
More flights under this callsign
Pilot: Daniel R. (17770)
Aircraft: BOEING 757-200
(B752)
More flights by this aircraft type
Origin: KPHX Phoenix Sky Harbor Intl
United States
Destination: KSNA John Wayne-Orange Co
United States
More flights between these airports :: More routes between these airports
Route: KEENS2 HRRBR EMLLD DSNEE4
File this flight plan on PilotEdge
Remarks:
Altitude:
(Current/Filed)
32,000ft
Speed:
(Current/Filed)
459kts
Departed: 05-Dec-18 07:26 PM
Arrived: 05-Dec-18 08:26 PM
Distance/Time
Traveled:
293nm/1:00
Distance/Time
To Go:
Arrived

Flight Plot

Page will automatically refresh every two minutes.

Flight plan parsing failed; only flown route is shown


Map Options




Map Legend


Flown Route
Filed Route
Departure Airport
Arrival Airport
Navaid (VOR, NDB)
Fix

Horizontal Profiles

Position Reports

Time Latitude Longitude Heading Altitude Ground
Speed
05-Dec-18 18:48 33.438894 -111.991523 43 1138ft 0kts
05-Dec-18 18:49 33.438894 -111.991523 43 1138ft 0kts
05-Dec-18 18:50 33.438894 -111.991523 43 1138ft 0kts
05-Dec-18 18:51 33.438894 -111.991523 43 1138ft 0kts
05-Dec-18 18:52 33.438894 -111.991524 43 1138ft 0kts
05-Dec-18 18:53 33.438894 -111.991524 43 1138ft 0kts
05-Dec-18 18:54 33.438894 -111.991524 43 1138ft 0kts
05-Dec-18 18:55 33.438894 -111.991524 43 1138ft 0kts
05-Dec-18 18:56 33.438894 -111.991524 43 1138ft 0kts
05-Dec-18 18:57 33.438894 -111.991524 43 1138ft 0kts
05-Dec-18 18:58 33.438894 -111.991524 43 1138ft 0kts
05-Dec-18 18:59 33.438894 -111.991524 43 1138ft 0kts
05-Dec-18 19:00 33.438894 -111.991524 43 1138ft 0kts
05-Dec-18 19:01 33.438894 -111.991524 43 1138ft 0kts
05-Dec-18 19:02 33.438894 -111.991524 43 1138ft 0kts
05-Dec-18 19:03 33.438894 -111.991524 43 1138ft 0kts
05-Dec-18 19:04 33.438894 -111.991524 43 1138ft 0kts
05-Dec-18 19:05 33.438894 -111.991524 43 1138ft 0kts
05-Dec-18 19:06 33.438894 -111.991524 43 1138ft 0kts
05-Dec-18 19:07 33.438894 -111.991524 43 1138ft 0kts
05-Dec-18 19:08 33.438894 -111.991524 43 1138ft 0kts
05-Dec-18 19:09 33.438894 -111.991524 43 1138ft 0kts
05-Dec-18 19:10 33.438894 -111.991524 43 1138ft 0kts
05-Dec-18 19:11 33.438894 -111.991524 43 1138ft 0kts
05-Dec-18 19:12 33.438894 -111.991524 43 1138ft 0kts
05-Dec-18 19:13 33.438894 -111.991524 43 1138ft 0kts
05-Dec-18 19:14 33.438894 -111.991524 43 1138ft 0kts
05-Dec-18 19:15 33.438894 -111.991524 43 1138ft 0kts
05-Dec-18 19:17 33.438894 -111.991524 43 1138ft 0kts
05-Dec-18 19:18 33.438894 -111.991523 43 1138ft 0kts
05-Dec-18 19:19 33.438894 -111.991523 43 1138ft 0kts
05-Dec-18 19:20 33.438894 -111.991523 43 1138ft 0kts
05-Dec-18 19:21 33.438894 -111.991523 43 1138ft 0kts
05-Dec-18 19:22 33.439566 -111.992233 320 1139ft 5kts
05-Dec-18 19:23 33.439782 -111.992275 355 1140ft 0kts
05-Dec-18 19:24 33.439782 -111.992275 355 1140ft 0kts
05-Dec-18 19:25 33.440814 -111.993374 272 1140ft 10kts
05-Dec-18 19:26 33.440088 -112.022486 254 1802ft 141kts
05-Dec-18 19:27 33.428108 -112.065969 250 2429ft 133kts
05-Dec-18 19:28 33.414247 -112.115201 248 3738ft 177kts
05-Dec-18 19:29 33.393112 -112.188466 252 6588ft 247kts
05-Dec-18 19:30 33.401950 -112.273769 273 10411ft 271kts
05-Dec-18 19:31 33.417228 -112.377561 274 12810ft 341kts
05-Dec-18 19:32 33.433926 -112.490535 274 16462ft 349kts
05-Dec-18 19:33 33.450226 -112.605771 268 19663ft 354kts
05-Dec-18 19:34 33.451788 -112.724082 265 22578ft 361kts
05-Dec-18 19:35 33.461502 -112.845549 275 25189ft 379kts
05-Dec-18 19:36 33.484634 -112.970338 275 27635ft 386kts
05-Dec-18 19:37 33.507589 -113.093735 274 30523ft 374kts
05-Dec-18 19:37 33.526187 -113.194417 274 32031ft 369kts
05-Dec-18 19:39 33.551683 -113.333072 274 32025ft 365kts
05-Dec-18 19:39 33.569874 -113.432600 274 32022ft 366kts
05-Dec-18 19:41 33.595528 -113.571913 274 32020ft 368kts
05-Dec-18 19:41 33.614149 -113.671925 274 32035ft 367kts
05-Dec-18 19:42 33.636366 -113.791879 274 32015ft 371kts
05-Dec-18 19:43 33.667797 -113.910958 284 32011ft 383kts
05-Dec-18 19:44 33.712348 -114.027164 285 32012ft 383kts
05-Dec-18 19:45 33.755398 -114.143837 277 32007ft 374kts
05-Dec-18 19:46 33.771850 -114.265915 271 31996ft 370kts
05-Dec-18 19:47 33.786436 -114.389763 271 32003ft 374kts
05-Dec-18 19:48 33.800759 -114.513719 271 32002ft 373kts
05-Dec-18 19:49 33.814907 -114.637255 271 32002ft 374kts
05-Dec-18 19:50 33.828809 -114.759876 271 32008ft 374kts
05-Dec-18 19:51 33.842915 -114.885643 271 32007ft 380kts
05-Dec-18 19:52 33.857027 -115.011939 271 31997ft 379kts
05-Dec-18 19:53 33.870965 -115.137895 271 32001ft 380kts
05-Dec-18 19:54 33.884773 -115.264055 271 32050ft 381kts
05-Dec-18 19:55 33.898626 -115.391777 271 32048ft 383kts
05-Dec-18 19:56 33.912376 -115.519590 271 32044ft 384kts
05-Dec-18 19:57 33.925905 -115.647281 270 32043ft 384kts
05-Dec-18 19:58 33.935062 -115.774454 267 31875ft 384kts
05-Dec-18 19:59 33.944166 -115.904086 267 31184ft 393kts
05-Dec-18 20:00 33.953397 -116.036677 268 29312ft 401kts
05-Dec-18 20:01 33.962533 -116.169482 269 26740ft 393kts
05-Dec-18 20:02 33.953109 -116.295860 255 24540ft 372kts
05-Dec-18 20:03 33.938640 -116.414204 255 22870ft 355kts
05-Dec-18 20:04 33.924446 -116.528524 256 21257ft 342kts
05-Dec-18 20:05 33.910225 -116.639555 256 19238ft 330kts
05-Dec-18 20:06 33.896586 -116.744817 257 17299ft 318kts
05-Dec-18 20:07 33.884948 -116.849279 259 15378ft 313kts
05-Dec-18 20:08 33.873700 -116.951910 260 13403ft 308kts
05-Dec-18 20:09 33.862446 -117.053815 260 11887ft 308kts
05-Dec-18 20:10 33.851208 -117.154741 260 10563ft 307kts
05-Dec-18 20:11 33.840178 -117.253195 260 9432ft 280kts
05-Dec-18 20:12 33.830267 -117.340967 260 8979ft 257kts
05-Dec-18 20:13 33.818173 -117.429863 256 8782ft 295kts
05-Dec-18 20:14 33.807854 -117.513485 281 8668ft 235kts
05-Dec-18 20:15 33.836084 -117.594642 291 8426ft 250kts
05-Dec-18 20:16 33.864424 -117.665868 291 6427ft 226kts
05-Dec-18 20:17 33.888579 -117.728303 291 4036ft 187kts
05-Dec-18 20:18 33.896136 -117.779700 220 3381ft 167kts
05-Dec-18 20:19 33.857096 -117.787282 181 2588ft 144kts
05-Dec-18 20:20 33.815277 -117.790957 181 2627ft 154kts
05-Dec-18 20:21 33.778496 -117.803703 205 2182ft 159kts
05-Dec-18 20:22 33.743688 -117.825697 206 1452ft 157kts
05-Dec-18 20:23 33.712159 -117.845721 207 759ft 135kts
05-Dec-18 20:24 33.682085 -117.864743 207 128ft 126kts
05-Dec-18 20:25 33.669143 -117.871553 128 68ft 0kts
05-Dec-18 20:26 33.669258 -117.870815 47 68ft 10kts
05-Dec-18 20:27 33.672101 -117.868120 29 68ft 11kts
05-Dec-18 20:28 33.672164 -117.867008 118 68ft 0kts
05-Dec-18 20:29 33.672164 -117.867008 118 68ft 0kts
05-Dec-18 20:30 33.672164 -117.867008 118 68ft 0kts
05-Dec-18 20:31 33.672164 -117.867008 118 68ft 0kts
05-Dec-18 20:32 33.672164 -117.867008 118 68ft 0kts
05-Dec-18 20:33 33.672164 -117.867008 118 68ft 0kts
05-Dec-18 20:34 33.672164 -117.867008 118 68ft 0kts
05-Dec-18 20:35 33.672164 -117.867008 118 68ft 0kts
05-Dec-18 20:36 33.672164 -117.867008 118 68ft 0kts
05-Dec-18 20:37 33.672164 -117.867008 118 68ft 0kts
05-Dec-18 20:38 33.672164 -117.867008 118 68ft 0kts

Navigation Log

Ident Type
Flight plan parsing failed, navigation log unavailable